createdAt,value
2022-09-20T00:00:37.302Z,99715.06
2022-09-20T00:01:40.207Z,99708.74
2022-09-20T00:02:44.118Z,99704.97
2022-09-20T00:03:48.418Z,99720.78
2022-09-20T00:04:51.986Z,99715.32
2022-09-20T00:05:55.250Z,99703.95
2022-09-20T00:06:59.592Z,99700.89
2022-09-20T00:08:05.204Z,99712.99
2022-09-20T00:09:08.599Z,99703.43
2022-09-20T00:10:11.466Z,99700.89
2022-09-20T00:11:22.398Z,99711.17
2022-09-20T00:12:27.465Z,99708.50
2022-09-20T00:13:30.761Z,99714.47
2022-09-20T00:14:34.198Z,99713.63
2022-09-20T00:15:41.949Z,99714.73
2022-09-20T00:16:45.099Z,99713.63
2022-09-20T00:17:47.809Z,99708.81
2022-09-20T00:18:52.463Z,99706.08
2022-09-20T00:19:55.969Z,99707.20
2022-09-20T00:20:59.370Z,99707.20
2022-09-20T00:22:01.739Z,99704.41
2022-09-20T00:23:08.045Z,99703.14
2022-09-20T00:24:11.628Z,99705.09
2022-09-20T00:25:17.255Z,99709.01
2022-09-20T00:26:20.434Z,99703.94
2022-09-20T00:27:24.159Z,99706.97
2022-09-20T00:28:28.390Z,99708.33
2022-09-20T00:29:31.679Z,99711.30
2022-09-20T00:30:37.973Z,99705.24
2022-09-20T00:31:42.270Z,99708.04
2022-09-20T00:32:45.641Z,99701.31
2022-09-20T00:34:07.649Z,99698.64
2022-09-20T00:35:17.020Z,99704.79
2022-09-20T00:36:20.607Z,99698.87
2022-09-20T00:37:24.035Z,99702.13
2022-09-20T00:38:27.828Z,99699.45
2022-09-20T00:39:32.731Z,99693.14
2022-09-20T00:40:35.260Z,99693.28
2022-09-20T00:41:40.743Z,99689.27
2022-09-20T00:42:46.957Z,99691.45
2022-09-20T00:43:50.364Z,99699.52
2022-09-20T00:45:00.543Z,99695.63
2022-09-20T00:46:05.502Z,99684.97
2022-09-20T00:47:10.061Z,99691.73
2022-09-20T00:48:18.065Z,99686.79
2022-09-20T00:49:23.175Z,99689.70
2022-09-20T00:50:48.278Z,99684.76
2022-09-20T00:51:57.513Z,99693.17
2022-09-20T00:53:02.888Z,99696.28
2022-09-20T00:54:08.181Z,99695.81
2022-09-20T00:55:12.134Z,99702.38
2022-09-20T00:56:20.199Z,99694.25
2022-09-20T00:57:25.798Z,99691.21
2022-09-20T00:58:29.605Z,99699.67
2022-09-20T00:59:35.731Z,99691.21
2022-09-20T01:00:40.113Z,99693.28
2022-09-20T01:01:44.115Z,99703.09
2022-09-20T01:02:50.567Z,99696.66
2022-09-20T01:03:55.142Z,99698.86
2022-09-20T01:04:59.001Z,99696.20
2022-09-20T01:06:02.913Z,99699.98
2022-09-20T01:07:08.823Z,99704.72
2022-09-20T01:08:12.545Z,99706.84
2022-09-20T01:09:16.667Z,99703.34
2022-09-20T01:10:20.391Z,99706.34
2022-09-20T01:11:23.698Z,99698.95
2022-09-20T01:12:31.058Z,99700.11
2022-09-20T01:13:34.706Z,99700.95
2022-09-20T01:14:36.908Z,99692.70
2022-09-20T01:15:40.421Z,99695.03
2022-09-20T01:16:43.985Z,99705.65
2022-09-20T01:17:51.390Z,99698.93
2022-09-20T01:18:57.517Z,99699.91
2022-09-20T01:20:15.070Z,99704.27
2022-09-20T01:21:22.179Z,99701.21
2022-09-20T01:22:31.417Z,99694.31
2022-09-20T01:23:46.768Z,99702.02
2022-09-20T01:25:05.804Z,99694.14
2022-09-20T01:26:12.640Z,99706.81
2022-09-20T01:27:35.574Z,99703.18
2022-09-20T01:28:42.536Z,99705.13
2022-09-20T01:29:47.712Z,99705.13
2022-09-20T01:31:10.950Z,99697.13
2022-09-20T01:32:15.824Z,99697.44
2022-09-20T01:33:21.971Z,99697.56
2022-09-20T01:34:28.260Z,99692.31
2022-09-20T01:35:33.427Z,99698.36
2022-09-20T01:36:44.986Z,99697.04
2022-09-20T01:37:50.254Z,99703.94
2022-09-20T01:38:56.685Z,99702.12
2022-09-20T01:40:01.765Z,99701.87
2022-09-20T01:41:18.380Z,99701.40
2022-09-20T01:42:25.174Z,99699.39
2022-09-20T01:43:32.014Z,99696.73
2022-09-20T01:44:47.435Z,99694.78
2022-09-20T01:45:51.224Z,99692.97
2022-09-20T01:46:56.535Z,99688.98
2022-09-20T01:48:00.654Z,99697.95
2022-09-20T01:49:11.586Z,99701.58
2022-09-20T01:50:33.580Z,99692.12
2022-09-20T01:51:50.140Z,99695.63
2022-09-20T01:53:07.316Z,99696.20
2022-09-20T01:54:15.104Z,99694.84
2022-09-20T01:55:23.205Z,99688.55
2022-09-20T01:56:46.946Z,99685.16
2022-09-20T01:58:00.512Z,99690.74
2022-09-20T01:59:27.169Z,99693.16
2022-09-20T02:00:19.734Z,99687.05
2022-09-20T02:01:27.907Z,99691.41
2022-09-20T02:02:52.017Z,99697.04
2022-09-20T02:04:07.168Z,99690.49
2022-09-20T02:05:28.903Z,99690.74
2022-09-20T02:06:50.145Z,99692.62
2022-09-20T02:08:04.200Z,99692.68
2022-09-20T02:09:09.493Z,99690.87
2022-09-20T02:10:19.906Z,99690.69
2022-09-20T02:11:24.029Z,99690.56
2022-09-20T02:12:33.698Z,99684.51
2022-09-20T02:13:57.057Z,99692.62
2022-09-20T02:15:20.827Z,99693.94
2022-09-20T02:16:35.915Z,99693.28
2022-09-20T02:17:50.292Z,99700.30
2022-09-20T02:19:07.688Z,99698.95
2022-09-20T02:20:17.239Z,99702.20
2022-09-20T02:21:40.811Z,99703.73
2022-09-20T02:22:53.865Z,99698.83
2022-09-20T02:24:00.962Z,99700.64
2022-09-20T02:25:12.007Z,99699.92
2022-09-20T02:26:33.470Z,99703.56
2022-09-20T02:27:39.838Z,99694.13
2022-09-20T02:28:55.517Z,99699.14
2022-09-20T02:30:01.852Z,99699.83
2022-09-20T02:31:18.890Z,99701.14
2022-09-20T02:32:25.876Z,99702.20
2022-09-20T02:33:35.979Z,99702.96
2022-09-20T02:34:43.133Z,99702.38
2022-09-20T02:36:05.424Z,99702.38
2022-09-20T02:37:10.515Z,99701.65
2022-09-20T02:38:22.463Z,99702.96
2022-09-20T02:39:40.081Z,99711.48
2022-09-20T02:40:45.192Z,99693.53
2022-09-20T02:42:05.475Z,99694.97
2022-09-20T02:43:13.439Z,99700.89
2022-09-20T02:44:21.874Z,99703.81
2022-09-20T02:45:32.562Z,99695.51
2022-09-20T02:46:41.679Z,99693.53
2022-09-20T02:47:45.529Z,99697.52
2022-09-20T02:49:08.492Z,99695.44
2022-09-20T02:50:15.653Z,99700.64
2022-09-20T02:51:22.082Z,99698.73
2022-09-20T02:52:33.202Z,99702.66
2022-09-20T02:53:37.451Z,99695.53
2022-09-20T02:54:42.730Z,99690.44
2022-09-20T02:55:58.154Z,99690.02
2022-09-20T02:57:06.763Z,99693.53
2022-09-20T02:58:24.056Z,99687.36
2022-09-20T02:59:32.233Z,99690.18
2022-09-20T03:00:54.259Z,99681.72
2022-09-20T03:02:02.470Z,99689.05
2022-09-20T03:03:25.792Z,99692.03
2022-09-20T03:04:46.957Z,99695.72
2022-09-20T03:06:06.558Z,99693.95
2022-09-20T03:07:11.836Z,99696.81
2022-09-20T03:08:16.072Z,99694.13
2022-09-20T03:09:30.900Z,99694.81
2022-09-20T03:10:54.424Z,99701.95
2022-09-20T03:11:59.907Z,99698.73
2022-09-20T03:13:09.354Z,99706.59
2022-09-20T03:14:17.664Z,99702.23
2022-09-20T03:15:22.840Z,99701.52
2022-09-20T03:16:30.972Z,99698.98
2022-09-20T03:17:51.588Z,99703.08
2022-09-20T03:19:14.781Z,99706.72
2022-09-20T03:20:28.573Z,99697.48
2022-09-20T03:21:38.343Z,99701.39
2022-09-20T03:22:58.321Z,99707.56
2022-09-20T03:24:13.143Z,99708.53
2022-09-20T03:25:34.399Z,99708.12
2022-09-20T03:26:51.576Z,99705.81
2022-09-20T03:28:13.371Z,99705.47
2022-09-20T03:29:17.711Z,99711.02
2022-09-20T03:30:24.758Z,99709.52
2022-09-20T03:31:32.944Z,99709.39
2022-09-20T03:32:41.074Z,99713.87
2022-09-20T03:33:46.243Z,99717.78
2022-09-20T03:34:51.633Z,99717.78
2022-09-20T03:36:13.255Z,99716.09
2022-09-20T03:37:17.447Z,99720.29
2022-09-20T03:38:28.471Z,99721.86
2022-09-20T03:39:50.985Z,99724.65
2022-09-20T03:40:59.503Z,99718.03
2022-09-20T03:42:04.470Z,99722.39
2022-09-20T03:43:25.939Z,99727.00
2022-09-20T03:44:32.864Z,99727.31
2022-09-20T03:45:43.978Z,99729.47
2022-09-20T03:46:48.861Z,99726.44
2022-09-20T03:48:03.451Z,99727.84
2022-09-20T03:49:25.867Z,99730.07
2022-09-20T03:50:39.812Z,99724.75
2022-09-20T03:51:47.075Z,99728.25
2022-09-20T03:52:58.308Z,99728.25
2022-09-20T03:54:03.919Z,99724.49
2022-09-20T03:55:16.078Z,99717.34
2022-09-20T03:56:33.694Z,99717.59
2022-09-20T03:57:57.149Z,99722.27
2022-09-20T03:59:07.746Z,99725.25
2022-09-20T04:00:22.532Z,99722.77
2022-09-20T04:01:34.477Z,99718.88
2022-09-20T04:02:55.549Z,99725.38
2022-09-20T04:04:16.508Z,99721.11
2022-09-20T04:05:20.953Z,99723.23
2022-09-20T04:06:26.329Z,99725.40
2022-09-20T04:07:35.588Z,99723.58
2022-09-20T04:08:41.184Z,99725.02
2022-09-20T04:10:04.850Z,99727.09
2022-09-20T04:12:43.410Z,99729.50
2022-09-20T04:13:52.542Z,99725.66
2022-09-20T04:15:00.404Z,99736.83
2022-09-20T04:16:07.874Z,99726.17
2022-09-20T04:17:31.677Z,99723.12
2022-09-20T04:18:40.406Z,99728.33
2022-09-20T04:19:52.578Z,99726.94
2022-09-20T04:20:58.068Z,99737.69
2022-09-20T04:22:05.019Z,99728.82
2022-09-20T04:23:10.302Z,99735.66
2022-09-20T04:24:30.934Z,99730.74
2022-09-20T04:25:43.978Z,99732.53
2022-09-20T04:26:48.076Z,99729.83
2022-09-20T04:27:54.610Z,99731.06
2022-09-20T04:29:10.335Z,99735.00
2022-09-20T04:30:27.598Z,99735.72
2022-09-20T04:31:32.847Z,99737.15
2022-09-20T04:32:37.971Z,99740.41
2022-09-20T04:33:43.146Z,99736.17
2022-09-20T04:35:06.287Z,99738.38
2022-09-20T04:36:29.952Z,99739.81
2022-09-20T04:37:37.738Z,99742.48
2022-09-20T04:38:41.567Z,99743.66
2022-09-20T04:39:47.672Z,99743.66
2022-09-20T04:41:10.604Z,99748.44
2022-09-20T04:42:15.792Z,99742.16
2022-09-20T04:43:38.101Z,99745.41
2022-09-20T04:44:47.649Z,99751.20
2022-09-20T04:45:54.774Z,99757.37
2022-09-20T04:47:09.398Z,99746.31
2022-09-20T04:48:30.229Z,99742.22
2022-09-20T04:49:52.210Z,99746.14
2022-09-20T04:50:59.706Z,99747.70
2022-09-20T04:52:06.124Z,99741.97
2022-09-20T04:53:20.200Z,99731.88
2022-09-20T04:54:25.052Z,99738.77
2022-09-20T04:55:47.778Z,99734.23
2022-09-20T04:57:08.204Z,99735.25
2022-09-20T04:58:20.993Z,99737.16
2022-09-20T04:59:37.759Z,99736.09
2022-09-20T05:00:49.324Z,99735.00
2022-09-20T05:01:58.530Z,99736.87
2022-09-20T05:03:06.672Z,99726.89
2022-09-20T05:04:12.266Z,99732.64
2022-09-20T05:05:21.811Z,99728.02
2022-09-20T05:06:44.331Z,99736.02
2022-09-20T05:07:57.561Z,99725.06
2022-09-20T05:09:05.868Z,99727.16
2022-09-20T05:10:17.304Z,99728.47
2022-09-20T05:11:26.876Z,99737.88
2022-09-20T05:12:38.770Z,99736.20
2022-09-20T05:13:57.063Z,99733.24
2022-09-20T05:15:14.356Z,99727.20
2022-09-20T05:16:27.675Z,99723.55
2022-09-20T05:17:38.705Z,99728.76
2022-09-20T05:18:46.841Z,99723.41
2022-09-20T05:19:54.393Z,99723.94
2022-09-20T05:21:10.640Z,99721.70
2022-09-20T05:22:18.836Z,99723.66
2022-09-20T05:23:26.728Z,99720.68
2022-09-20T05:24:40.061Z,99718.11
2022-09-20T05:25:45.629Z,99720.09
2022-09-20T05:27:03.055Z,99718.15
2022-09-20T05:28:14.391Z,99712.66
2022-09-20T05:29:18.960Z,99716.03
2022-09-20T05:30:36.120Z,99714.17
2022-09-20T05:31:49.058Z,99718.39
2022-09-20T05:33:02.268Z,99710.36
2022-09-20T05:34:11.695Z,99715.02
2022-09-20T05:35:25.861Z,99715.22
2022-09-20T05:36:34.607Z,99717.36
2022-09-20T05:37:50.218Z,99715.92
2022-09-20T05:39:09.150Z,99719.34
2022-09-20T05:40:27.522Z,99719.74
2022-09-20T05:41:32.486Z,99714.27
2022-09-20T05:42:48.780Z,99712.17
2022-09-20T05:43:56.415Z,99721.86
2022-09-20T05:45:03.059Z,99720.17
2022-09-20T05:46:20.490Z,99711.89
2022-09-20T05:47:37.104Z,99721.73
2022-09-20T05:48:55.212Z,99714.13
2022-09-20T05:50:03.658Z,99716.81
2022-09-20T05:51:08.150Z,99719.75
2022-09-20T05:52:25.384Z,99721.58
2022-09-20T05:53:46.970Z,99719.19
2022-09-20T05:55:08.535Z,99725.35
2022-09-20T05:56:26.881Z,99726.06
2022-09-20T05:57:47.963Z,99732.13
2022-09-20T05:58:56.232Z,99716.94
2022-09-20T06:00:03.287Z,99725.63
2022-09-20T06:01:23.840Z,99724.63
2022-09-20T06:02:41.087Z,99723.92
2022-09-20T06:03:52.339Z,99715.11
2022-09-20T06:05:07.403Z,99713.75
2022-09-20T06:06:15.334Z,99718.87
2022-09-20T06:07:26.256Z,99711.34
2022-09-20T06:08:47.111Z,99711.62
2022-09-20T06:09:51.231Z,99717.52
2022-09-20T06:11:06.949Z,99710.13
2022-09-20T06:12:15.172Z,99720.02
2022-09-20T06:13:36.331Z,99722.46
2022-09-20T06:14:43.061Z,99720.33
2022-09-20T06:15:52.008Z,99718.94
2022-09-20T06:17:10.146Z,99720.48
2022-09-20T06:18:24.713Z,99714.13
2022-09-20T06:19:41.064Z,99721.47
2022-09-20T06:21:02.733Z,99719.12
2022-09-20T06:22:18.878Z,99713.63
2022-09-20T06:23:23.787Z,99715.35
2022-09-20T06:24:34.451Z,99713.36
2022-09-20T06:25:43.710Z,99709.00
2022-09-20T06:26:47.311Z,99708.28
2022-09-20T06:28:00.016Z,99705.75
2022-09-20T06:29:05.506Z,99705.23
2022-09-20T06:30:11.931Z,99711.77
2022-09-20T06:31:18.281Z,99705.58
2022-09-20T06:32:21.699Z,99707.62
2022-09-20T06:33:26.411Z,99707.83
2022-09-20T06:34:29.924Z,99705.44
2022-09-20T06:35:40.203Z,99721.67
2022-09-20T06:37:10.332Z,99715.75
2022-09-20T06:38:54.575Z,99718.01
2022-09-20T06:40:21.983Z,99716.32
2022-09-20T06:41:30.296Z,99720.82
2022-09-20T06:42:34.556Z,99721.53
2022-09-20T06:43:38.792Z,99723.61
2022-09-20T06:44:42.820Z,99726.98
2022-09-20T06:45:47.631Z,99718.81
2022-09-20T06:46:51.827Z,99718.77
2022-09-20T06:47:54.077Z,99723.98
2022-09-20T06:48:59.098Z,99731.53
2022-09-20T06:50:09.234Z,99723.09
2022-09-20T06:51:12.775Z,99725.45
2022-09-20T06:52:21.775Z,99722.34
2022-09-20T06:53:28.417Z,99721.14
2022-09-20T06:54:33.035Z,99712.09
2022-09-20T06:55:39.534Z,99725.74
2022-09-20T06:56:44.677Z,99720.97
2022-09-20T06:57:48.601Z,99714.00
2022-09-20T06:58:53.244Z,99716.75
2022-09-20T06:59:57.526Z,99718.32
2022-09-20T07:01:01.513Z,99717.48
2022-09-20T07:02:09.046Z,99716.20
2022-09-20T07:03:13.529Z,99711.87
2022-09-20T07:04:16.942Z,99719.98
2022-09-20T07:05:25.773Z,99720.45
2022-09-20T07:06:29.622Z,99723.36
2022-09-20T07:07:32.991Z,99720.53
2022-09-20T07:08:36.846Z,99725.12
2022-09-20T07:09:41.151Z,99718.55
2022-09-20T07:10:44.969Z,99716.09
2022-09-20T07:11:48.474Z,99726.80
2022-09-20T07:12:51.979Z,99725.45
2022-09-20T07:13:56.637Z,99725.27
2022-09-20T07:14:59.213Z,99725.77
2022-09-20T07:16:05.583Z,99727.83
2022-09-20T07:17:12.204Z,99722.95
2022-09-20T07:18:18.651Z,99720.01
2022-09-20T07:19:23.496Z,99725.77
2022-09-20T07:20:27.574Z,99723.38
2022-09-20T07:21:30.975Z,99723.45
2022-09-20T07:22:35.838Z,99723.33
2022-09-20T07:23:39.249Z,99721.80
2022-09-20T07:24:43.905Z,99715.84
2022-09-20T07:25:48.075Z,99714.02
2022-09-20T07:26:55.915Z,99712.09
2022-09-20T07:28:00.370Z,99720.20
2022-09-20T07:29:04.070Z,99716.34
2022-09-20T07:30:07.799Z,99708.66
2022-09-20T07:31:12.140Z,99716.55
2022-09-20T07:32:16.270Z,99714.25
2022-09-20T07:33:21.376Z,99716.27
2022-09-20T07:34:24.942Z,99716.42
2022-09-20T07:35:29.737Z,99710.44
2022-09-20T07:36:33.320Z,99717.59
2022-09-20T07:37:39.094Z,99717.12
2022-09-20T07:38:46.033Z,99725.30
2022-09-20T07:39:49.475Z,99727.09
2022-09-20T07:41:01.257Z,99733.19
2022-09-20T07:42:06.103Z,99729.29
2022-09-20T07:43:11.274Z,99735.20
2022-09-20T07:44:28.671Z,99735.11
2022-09-20T07:45:33.639Z,99738.53
2022-09-20T07:46:39.988Z,99743.83
2022-09-20T07:47:46.871Z,99741.69
2022-09-20T07:48:50.036Z,99748.11
2022-09-20T07:49:57.043Z,99739.03
2022-09-20T07:51:05.716Z,99736.86
2022-09-20T07:52:08.125Z,99749.66
2022-09-20T07:53:10.921Z,99748.94
2022-09-20T07:54:14.300Z,99747.61
2022-09-20T07:55:17.819Z,99746.33
2022-09-20T07:56:20.475Z,99742.73
2022-09-20T07:57:24.095Z,99742.06
2022-09-20T07:58:27.590Z,99738.69
2022-09-20T07:59:30.582Z,99737.91
2022-09-20T08:00:33.867Z,99740.70
2022-09-20T08:01:39.265Z,99743.02
2022-09-20T08:02:42.631Z,99739.09
2022-09-20T08:03:46.658Z,99733.23
2022-09-20T08:04:51.240Z,99740.67
2022-09-20T08:05:56.441Z,99747.17
2022-09-20T08:07:01.377Z,99747.06
2022-09-20T08:08:04.463Z,99743.57
2022-09-20T08:09:11.326Z,99741.96
2022-09-20T08:10:15.335Z,99746.25
2022-09-20T08:11:20.355Z,99740.67
2022-09-20T08:14:34.159Z,99744.34
2022-09-20T08:15:37.676Z,99742.28
2022-09-20T08:16:42.978Z,99743.67
2022-09-20T08:17:47.598Z,99762.03
2022-09-20T08:18:59.285Z,99759.80
2022-09-20T08:20:03.114Z,99761.66
2022-09-20T08:21:07.678Z,99747.77
2022-09-20T08:22:14.069Z,99754.48
2022-09-20T08:23:23.977Z,99748.75
2022-09-20T08:24:27.018Z,99746.17
2022-09-20T08:25:29.811Z,99754.89
2022-09-20T08:26:35.182Z,99746.33
2022-09-20T08:27:38.791Z,99748.17
2022-09-20T08:28:42.650Z,99748.55
2022-09-20T08:29:44.954Z,99749.41
2022-09-20T08:30:51.943Z,99742.50
2022-09-20T08:31:56.498Z,99745.94
2022-09-20T08:33:03.313Z,99753.08
2022-09-20T08:34:07.341Z,99741.95
2022-09-20T08:35:11.878Z,99748.69
2022-09-20T08:36:18.743Z,99741.16
2022-09-20T08:37:21.407Z,99739.41
2022-09-20T08:40:37.795Z,99742.37
2022-09-20T08:42:02.366Z,99743.97
2022-09-20T08:43:06.599Z,99735.10
2022-09-20T08:44:20.838Z,99731.86
2022-09-20T08:45:34.771Z,99731.02
2022-09-20T08:46:35.869Z,99734.21
2022-09-20T08:47:41.206Z,99733.37
2022-09-20T08:48:48.783Z,99736.62
2022-09-20T08:49:57.174Z,99730.80
2022-09-20T08:51:05.669Z,99738.56
2022-09-20T08:52:11.109Z,99728.83
2022-09-20T08:53:21.174Z,99736.03
2022-09-20T08:54:23.584Z,99735.77
2022-09-20T08:55:37.156Z,99727.08
2022-09-20T08:56:40.162Z,99728.39
2022-09-20T08:57:45.158Z,99726.59
2022-09-20T08:58:49.186Z,99730.25
2022-09-20T08:59:52.428Z,99725.30
2022-09-20T09:01:00.811Z,99724.06
2022-09-20T09:02:04.324Z,99727.83
2022-09-20T09:03:09.329Z,99722.76
2022-09-20T09:04:17.154Z,99719.94
2022-09-20T09:05:33.887Z,99724.77
2022-09-20T09:06:40.326Z,99722.52
2022-09-20T09:07:46.709Z,99726.00
2022-09-20T09:08:52.092Z,99729.52
2022-09-20T09:09:56.365Z,99720.47
2022-09-20T09:11:07.073Z,99727.22
2022-09-20T09:12:20.296Z,99725.81
2022-09-20T09:13:29.430Z,99716.09
2022-09-20T09:14:53.007Z,99721.44
2022-09-20T09:15:58.813Z,99720.69
2022-09-20T09:17:02.343Z,99722.39
2022-09-20T09:18:08.093Z,99714.25
2022-09-20T09:19:36.562Z,99711.31
2022-09-20T09:20:37.902Z,99719.62
2022-09-20T09:21:42.243Z,99716.03
2022-09-20T09:22:47.720Z,99718.41
2022-09-20T09:23:57.696Z,99710.45
2022-09-20T09:25:19.171Z,99718.02
2022-09-20T09:26:24.082Z,99718.91
2022-09-20T09:27:26.925Z,99721.26
2022-09-20T09:28:32.538Z,99714.22
2022-09-20T09:29:37.277Z,99727.48
2022-09-20T09:30:45.053Z,99717.97
2022-09-20T09:31:52.613Z,99714.27
2022-09-20T09:33:14.634Z,99720.64
2022-09-20T09:34:22.944Z,99726.66
2022-09-20T09:35:29.286Z,99723.34
2022-09-20T09:36:33.441Z,99715.32
2022-09-20T09:37:36.300Z,99719.72
2022-09-20T09:38:44.206Z,99720.26
2022-09-20T09:39:47.570Z,99729.88
2022-09-20T09:40:54.728Z,99722.70
2022-09-20T09:42:01.598Z,99723.84
2022-09-20T09:43:05.291Z,99722.76
2022-09-20T09:44:12.526Z,99723.50
2022-09-20T09:45:17.839Z,99722.23
2022-09-20T09:46:26.906Z,99730.95
2022-09-20T09:47:30.167Z,99731.34
2022-09-20T09:48:34.358Z,99723.31
2022-09-20T09:49:37.812Z,99728.77
2022-09-20T09:50:40.975Z,99728.19
2022-09-20T09:52:04.579Z,99726.79
2022-09-20T09:53:13.665Z,99725.66
2022-09-20T09:54:21.330Z,99734.83
2022-09-20T09:55:26.555Z,99722.42
2022-09-20T09:56:34.563Z,99728.95
2022-09-20T09:57:53.202Z,99727.48
2022-09-20T09:59:13.417Z,99724.20
2022-09-20T10:00:22.299Z,99716.80
2022-09-20T10:01:32.566Z,99724.69
2022-09-20T10:02:36.443Z,99717.97
2022-09-20T10:03:41.016Z,99714.06
2022-09-20T10:04:54.967Z,99715.61
2022-09-20T10:06:04.572Z,99714.23
2022-09-20T10:07:13.267Z,99708.05
2022-09-20T10:08:21.577Z,99705.06
2022-09-20T10:09:29.413Z,99703.75
2022-09-20T10:10:36.838Z,99701.36
2022-09-20T10:11:42.784Z,99689.81
2022-09-20T10:12:47.806Z,99693.98
2022-09-20T10:13:53.071Z,99693.19
2022-09-20T10:14:57.437Z,99691.86
2022-09-20T10:16:18.003Z,99688.84
2022-09-20T10:17:26.058Z,99693.84
2022-09-20T10:18:31.245Z,99688.84
2022-09-20T10:19:47.170Z,99687.45
2022-09-20T10:20:55.896Z,99683.56
2022-09-20T10:22:04.007Z,99683.33
2022-09-20T10:23:51.608Z,99681.73
2022-09-20T10:24:28.597Z,99686.09
2022-09-20T10:25:44.499Z,99686.84
2022-09-20T10:26:51.857Z,99683.23
2022-09-20T10:28:03.835Z,99684.55
2022-09-20T10:29:09.202Z,99681.48
2022-09-20T10:30:17.889Z,99690.03
2022-09-20T10:31:38.582Z,99677.27
2022-09-20T10:32:47.101Z,99675.55
2022-09-20T10:33:54.781Z,99675.27
2022-09-20T10:35:09.702Z,99682.54
2022-09-20T10:36:29.043Z,99683.63
2022-09-20T10:37:34.090Z,99684.19
2022-09-20T10:38:42.442Z,99677.47
2022-09-20T10:39:47.818Z,99678.08
2022-09-20T10:41:22.335Z,99675.83
2022-09-20T10:42:46.219Z,99673.71
2022-09-20T10:44:09.035Z,99667.95
2022-09-20T10:45:59.525Z,99667.66
2022-09-20T10:46:52.693Z,99668.51
2022-09-20T10:48:01.732Z,99665.87
2022-09-20T10:49:07.842Z,99672.87
2022-09-20T10:50:13.563Z,99669.07
2022-09-20T10:51:20.316Z,99664.29
2022-09-20T10:52:32.400Z,99662.45
2022-09-20T10:53:50.152Z,99660.63
2022-09-20T10:54:56.855Z,99671.18
2022-09-20T10:56:02.227Z,99667.05
2022-09-20T10:57:13.492Z,99669.73
2022-09-20T10:58:19.470Z,99669.73
2022-09-20T10:59:41.869Z,99666.72
2022-09-20T11:00:53.062Z,99653.77
2022-09-20T11:02:11.876Z,99657.80
2022-09-20T11:03:22.721Z,99660.13
2022-09-20T11:04:27.549Z,99657.86
2022-09-20T11:05:36.482Z,99660.37
2022-09-20T11:06:41.126Z,99655.54
2022-09-20T11:07:53.947Z,99658.65
2022-09-20T11:09:00.148Z,99657.52
2022-09-20T11:10:09.931Z,99660.55
2022-09-20T11:11:34.255Z,99660.25
2022-09-20T11:12:46.802Z,99656.67
2022-09-20T11:13:59.477Z,99660.33
2022-09-20T11:15:06.037Z,99657.16
2022-09-20T11:16:11.620Z,99655.52
2022-09-20T11:17:27.571Z,99657.44
2022-09-20T11:18:37.690Z,99654.02
2022-09-20T11:20:04.856Z,99665.70
2022-09-20T11:21:14.945Z,99662.56
2022-09-20T11:22:19.957Z,99657.53
2022-09-20T11:23:25.935Z,99651.44
2022-09-20T11:24:34.244Z,99658.19
2022-09-20T11:25:40.787Z,99658.05
2022-09-20T11:26:49.078Z,99661.84
2022-09-20T11:27:53.220Z,99664.23
2022-09-20T11:28:58.180Z,99656.73
2022-09-20T11:30:07.637Z,99653.08
2022-09-20T11:31:13.543Z,99645.61
2022-09-20T11:32:25.339Z,99646.09
2022-09-20T11:33:42.382Z,99644.63
2022-09-20T11:35:12.639Z,99646.55
2022-09-20T11:36:20.738Z,99647.72
2022-09-20T11:37:24.952Z,99653.27
2022-09-20T11:38:33.428Z,99647.92
2022-09-20T11:39:55.693Z,99649.43
2022-09-20T11:41:03.574Z,99642.95
2022-09-20T11:42:07.820Z,99644.89
2022-09-20T11:43:13.518Z,99645.70
2022-09-20T11:44:19.997Z,99643.64
2022-09-20T11:45:27.699Z,99639.36
2022-09-20T11:46:31.549Z,99649.37
2022-09-20T11:47:54.409Z,99634.78
2022-09-20T11:48:52.307Z,99642.59
2022-09-20T11:50:17.259Z,99631.80
2022-09-20T11:51:43.320Z,99628.83
2022-09-20T11:52:48.614Z,99632.42
2022-09-20T11:54:00.715Z,99632.73
2022-09-20T11:55:17.652Z,99635.81
2022-09-20T11:56:26.837Z,99634.97
2022-09-20T11:57:30.523Z,99632.89
2022-09-20T11:58:37.787Z,99630.90
2022-09-20T11:59:42.755Z,99632.07
2022-09-20T12:00:47.399Z,99631.74
2022-09-20T12:01:52.579Z,99637.59
2022-09-20T12:03:00.264Z,99632.28
2022-09-20T12:04:31.688Z,99634.42
2022-09-20T12:05:33.495Z,99628.75
2022-09-20T12:06:39.192Z,99637.95
2022-09-20T12:07:45.878Z,99644.63
2022-09-20T12:08:55.112Z,99642.61
2022-09-20T12:10:01.014Z,99632.31
2022-09-20T12:11:06.062Z,99635.29
2022-09-20T12:12:28.199Z,99632.25
2022-09-20T12:13:35.201Z,99635.47
2022-09-20T12:14:38.288Z,99627.77
2022-09-20T12:15:44.615Z,99634.78
2022-09-20T12:16:50.695Z,99640.28
2022-09-20T12:17:56.335Z,99639.80
2022-09-20T12:19:01.696Z,99631.18
2022-09-20T12:20:06.159Z,99633.45
2022-09-20T12:21:15.382Z,99634.45
2022-09-20T12:22:16.416Z,99638.11
2022-09-20T12:23:42.303Z,99640.56
2022-09-20T12:24:45.800Z,99633.29
2022-09-20T12:26:04.352Z,99630.77
2022-09-20T12:27:27.812Z,99627.59
2022-09-20T12:28:37.651Z,99623.38
2022-09-20T12:29:48.591Z,99620.63
2022-09-20T12:30:53.749Z,99626.23
2022-09-20T12:32:05.577Z,99618.97
2022-09-20T12:33:09.834Z,99632.76
2022-09-20T12:34:16.403Z,99628.72
2022-09-20T12:35:26.255Z,99624.29
2022-09-20T12:36:32.994Z,99622.78
2022-09-20T12:37:40.399Z,99616.44
2022-09-20T12:38:47.052Z,99622.04
2022-09-20T12:39:52.068Z,99621.72
2022-09-20T12:41:14.895Z,99608.16
2022-09-20T12:42:28.384Z,99612.89
2022-09-20T12:43:32.663Z,99611.23
2022-09-20T12:44:39.477Z,99609.47
2022-09-20T12:45:43.665Z,99602.61
2022-09-20T12:47:08.037Z,99600.89
2022-09-20T12:48:14.637Z,99596.56
2022-09-20T12:49:24.315Z,99599.98
2022-09-20T12:50:46.774Z,99591.21
2022-09-20T12:52:11.375Z,99593.05
2022-09-20T12:53:15.706Z,99601.81
2022-09-20T12:54:20.394Z,99598.58
2022-09-20T12:55:43.086Z,99593.23
2022-09-20T12:56:48.323Z,99587.95
2022-09-20T12:57:57.238Z,99591.88
2022-09-20T12:59:02.478Z,99594.64
2022-09-20T13:00:08.619Z,99595.20
2022-09-20T13:01:14.491Z,99589.64
2022-09-20T13:02:36.070Z,99586.75
2022-09-20T13:03:42.434Z,99595.02
2022-09-20T13:04:50.711Z,99590.63
2022-09-20T13:05:59.427Z,99587.47
2022-09-20T13:07:23.866Z,99588.54
2022-09-20T13:08:33.576Z,99579.78
2022-09-20T13:09:37.321Z,99578.86
2022-09-20T13:10:45.001Z,99579.79
2022-09-20T13:11:51.602Z,99579.94
2022-09-20T13:12:56.189Z,99578.66
2022-09-20T13:14:07.486Z,99582.81
2022-09-20T13:15:11.554Z,99572.26
2022-09-20T13:16:25.848Z,99579.17
2022-09-20T13:17:32.728Z,99577.40
2022-09-20T13:18:36.891Z,99571.42
2022-09-20T13:19:45.408Z,99579.59
2022-09-20T13:20:48.287Z,99582.41
2022-09-20T13:21:58.487Z,99582.80
2022-09-20T13:23:05.604Z,99582.46
2022-09-20T13:24:12.078Z,99581.14
2022-09-20T13:25:19.881Z,99577.28
2022-09-20T13:26:32.028Z,99578.83
2022-09-20T13:27:42.751Z,99571.30
2022-09-20T13:28:54.851Z,99574.53
2022-09-20T13:30:18.058Z,99566.22
2022-09-20T13:31:24.622Z,99565.66
2022-09-20T13:32:29.177Z,99568.39
2022-09-20T13:33:31.611Z,99570.45
2022-09-20T13:34:36.671Z,99569.09
2022-09-20T13:35:40.802Z,99571.91
2022-09-20T13:36:44.099Z,99574.25
2022-09-20T13:37:49.067Z,99579.68
2022-09-20T13:38:54.527Z,99571.24
2022-09-20T13:39:59.225Z,99572.37
2022-09-20T13:41:03.770Z,99573.81
2022-09-20T13:42:11.245Z,99572.13